sensor_id;sensor_type;location;lat;lon;timestamp;pressure;altitude;pressure_sealevel;temperature;humidity
19748;BME280;10032;51.386;12.516;2023-03-12T00:01:44;99856.84;;;-1.25;100.00
19748;BME280;10032;51.386;12.516;2023-03-12T00:04:10;99856.50;;;-1.22;100.00
19748;BME280;10032;51.386;12.516;2023-03-12T00:06:36;99860.69;;;-1.28;100.00
19748;BME280;10032;51.386;12.516;2023-03-12T00:09:02;99859.63;;;-1.19;100.00
19748;BME280;10032;51.386;12.516;2023-03-12T00:11:29;99849.66;;;-1.02;100.00
19748;BME280;10032;51.386;12.516;2023-03-12T00:13:56;99846.88;;;-0.94;100.00
19748;BME280;10032;51.386;12.516;2023-03-12T00:16:22;99846.16;;;-0.88;100.00
19748;BME280;10032;51.386;12.516;2023-03-12T00:18:49;99849.06;;;-0.83;100.00
19748;BME280;10032;51.386;12.516;2023-03-12T00:21:15;99846.59;;;-0.85;100.00
19748;BME280;10032;51.386;12.516;2023-03-12T00:23:41;99843.41;;;-0.80;100.00
19748;BME280;10032;51.386;12.516;2023-03-12T00:26:09;99857.31;;;-0.78;100.00
19748;BME280;10032;51.386;12.516;2023-03-12T00:28:36;99857.72;;;-0.81;100.00
19748;BME280;10032;51.386;12.516;2023-03-12T00:31:03;99857.97;;;-0.76;100.00
19748;BME280;10032;51.386;12.516;2023-03-12T00:33:28;99849.00;;;-0.75;100.00
19748;BME280;10032;51.386;12.516;2023-03-12T00:35:55;99859.81;;;-0.77;100.00
19748;BME280;10032;51.386;12.516;2023-03-12T00:38:23;99858.63;;;-0.74;100.00
19748;BME280;10032;51.386;12.516;2023-03-12T00:40:49;99856.97;;;-0.75;100.00
19748;BME280;10032;51.386;12.516;2023-03-12T00:43:14;99855.78;;;-0.73;100.00
19748;BME280;10032;51.386;12.516;2023-03-12T00:45:39;99856.03;;;-0.68;100.00
19748;BME280;10032;51.386;12.516;2023-03-12T00:48:05;99861.38;;;-0.68;100.00
19748;BME280;10032;51.386;12.516;2023-03-12T00:50:31;99862.00;;;-0.66;100.00
19748;BME280;10032;51.386;12.516;2023-03-12T00:52:56;99860.97;;;-0.65;100.00
19748;BME280;10032;51.386;12.516;2023-03-12T00:55:21;99862.84;;;-0.65;100.00
19748;BME280;10032;51.386;12.516;2023-03-12T00:57:47;99862.44;;;-0.63;100.00
19748;BME280;10032;51.386;12.516;2023-03-12T01:00:13;99871.09;;;-0.60;100.00
19748;BME280;10032;51.386;12.516;2023-03-12T01:02:39;99866.38;;;-0.58;100.00
19748;BME280;10032;51.386;12.516;2023-03-12T01:05:06;99861.25;;;-0.60;100.00
19748;BME280;10032;51.386;12.516;2023-03-12T01:07:32;99862.09;;;-0.59;100.00
19748;BME280;10032;51.386;12.516;2023-03-12T01:09:58;99861.69;;;-0.57;100.00
19748;BME280;10032;51.386;12.516;2023-03-12T01:12:24;99861.34;;;-0.53;100.00
19748;BME280;10032;51.386;12.516;2023-03-12T01:14:49;99869.94;;;-0.52;100.00
19748;BME280;10032;51.386;12.516;2023-03-12T01:17:15;99856.66;;;-0.52;100.00
19748;BME280;10032;51.386;12.516;2023-03-12T01:19:40;99864.28;;;-0.48;100.00
19748;BME280;10032;51.386;12.516;2023-03-12T01:22:05;99861.44;;;-0.47;100.00
19748;BME280;10032;51.386;12.516;2023-03-12T01:24:31;99864.91;;;-0.47;100.00
19748;BME280;10032;51.386;12.516;2023-03-12T01:26:56;99855.72;;;-0.44;100.00
19748;BME280;10032;51.386;12.516;2023-03-12T01:29:22;99861.88;;;-0.43;100.00
19748;BME280;10032;51.386;12.516;2023-03-12T01:31:48;99867.19;;;-0.43;100.00
19748;BME280;10032;51.386;12.516;2023-03-12T01:34:13;99853.72;;;-0.42;100.00
19748;BME280;10032;51.386;12.516;2023-03-12T01:36:39;99858.19;;;-0.43;100.00
19748;BME280;10032;51.386;12.516;2023-03-12T01:39:04;99850.22;;;-0.43;100.00
19748;BME280;10032;51.386;12.516;2023-03-12T01:41:30;99858.03;;;-0.41;100.00
19748;BME280;10032;51.386;12.516;2023-03-12T01:43:57;99858.19;;;-0.43;100.00
19748;BME280;10032;51.386;12.516;2023-03-12T01:46:33;99857.19;;;-0.42;100.00
19748;BME280;10032;51.386;12.516;2023-03-12T01:51:56;99855.53;;;-0.43;100.00
19748;BME280;10032;51.386;12.516;2023-03-12T01:54:46;99861.47;;;-0.41;100.00
19748;BME280;10032;51.386;12.516;2023-03-12T01:57:15;99862.22;;;-0.47;100.00
19748;BME280;10032;51.386;12.516;2023-03-12T01:59:52;99867.56;;;-0.47;100.00
19748;BME280;10032;51.386;12.516;2023-03-12T02:02:19;99863.06;;;-0.46;100.00
19748;BME280;10032;51.386;12.516;2023-03-12T02:05:34;99854.91;;;-0.44;100.00
19748;BME280;10032;51.386;12.516;2023-03-12T02:07:39;99858.56;;;-0.46;100.00
19748;BME280;10032;51.386;12.516;2023-03-12T02:10:05;99857.94;;;-0.47;100.00
19748;BME280;10032;51.386;12.516;2023-03-12T02:12:31;99863.88;;;-0.46;100.00
19748;BME280;10032;51.386;12.516;2023-03-12T02:14:57;99860.59;;;-0.47;100.00
19748;BME280;10032;51.386;12.516;2023-03-12T02:17:22;99864.72;;;-0.45;100.00
19748;BME280;10032;51.386;12.516;2023-03-12T02:22:19;99859.56;;;-0.47;100.00
19748;BME280;10032;51.386;12.516;2023-03-12T02:27:15;99868.75;;;-0.49;100.00
19748;BME280;10032;51.386;12.516;2023-03-12T02:29:41;99864.28;;;-0.48;100.00
19748;BME280;10032;51.386;12.516;2023-03-12T02:32:09;99857.03;;;-0.54;100.00
19748;BME280;10032;51.386;12.516;2023-03-12T02:34:37;99860.31;;;-0.52;100.00
19748;BME280;10032;51.386;12.516;2023-03-12T02:37:03;99855.56;;;-0.57;100.00
19748;BME280;10032;51.386;12.516;2023-03-12T02:39:28;99863.72;;;-0.58;100.00
19748;BME280;10032;51.386;12.516;2023-03-12T02:41:55;99874.53;;;-0.60;100.00
19748;BME280;10032;51.386;12.516;2023-03-12T02:44:27;99873.53;;;-0.59;100.00
19748;BME280;10032;51.386;12.516;2023-03-12T02:46:56;99881.50;;;-0.59;100.00
19748;BME280;10032;51.386;12.516;2023-03-12T02:49:24;99874.09;;;-0.63;100.00
19748;BME280;10032;51.386;12.516;2023-03-12T02:51:49;99878.41;;;-0.63;100.00
19748;BME280;10032;51.386;12.516;2023-03-12T02:54:17;99876.94;;;-0.65;100.00
19748;BME280;10032;51.386;12.516;2023-03-12T02:56:43;99886.94;;;-0.67;100.00
19748;BME280;10032;51.386;12.516;2023-03-12T02:59:09;99881.44;;;-0.65;100.00
19748;BME280;10032;51.386;12.516;2023-03-12T03:01:35;99883.09;;;-0.64;100.00
19748;BME280;10032;51.386;12.516;2023-03-12T03:04:02;99875.13;;;-0.64;100.00
19748;BME280;10032;51.386;12.516;2023-03-12T03:06:28;99883.44;;;-0.68;100.00
19748;BME280;10032;51.386;12.516;2023-03-12T03:08:53;99885.09;;;-0.67;100.00
19748;BME280;10032;51.386;12.516;2023-03-12T03:11:19;99889.44;;;-0.65;100.00
19748;BME280;10032;51.386;12.516;2023-03-12T03:13:49;99886.75;;;-0.65;100.00
19748;BME280;10032;51.386;12.516;2023-03-12T03:16:14;99890.91;;;-0.63;100.00
19748;BME280;10032;51.386;12.516;2023-03-12T03:18:40;99895.09;;;-0.68;100.00
19748;BME280;10032;51.386;12.516;2023-03-12T03:21:07;99896.13;;;-0.69;100.00
19748;BME280;10032;51.386;12.516;2023-03-12T03:23:34;99897.47;;;-0.73;100.00
19748;BME280;10032;51.386;12.516;2023-03-12T03:26:00;99902.97;;;-0.75;100.00
19748;BME280;10032;51.386;12.516;2023-03-12T03:28:27;99898.69;;;-0.76;100.00
19748;BME280;10032;51.386;12.516;2023-03-12T03:30:55;99915.81;;;-0.78;100.00
19748;BME280;10032;51.386;12.516;2023-03-12T03:33:23;99911.25;;;-0.84;100.00
19748;BME280;10032;51.386;12.516;2023-03-12T03:35:48;99911.59;;;-0.88;100.00
19748;BME280;10032;51.386;12.516;2023-03-12T03:38:14;99909.31;;;-0.90;100.00
19748;BME280;10032;51.386;12.516;2023-03-12T03:40:40;99918.66;;;-0.94;100.00
19748;BME280;10032;51.386;12.516;2023-03-12T03:43:05;99913.72;;;-0.97;100.00
19748;BME280;10032;51.386;12.516;2023-03-12T03:45:30;99916.91;;;-1.02;100.00
19748;BME280;10032;51.386;12.516;2023-03-12T03:47:56;99917.72;;;-1.01;100.00
19748;BME280;10032;51.386;12.516;2023-03-12T03:50:21;99918.75;;;-1.02;100.00
19748;BME280;10032;51.386;12.516;2023-03-12T03:52:47;99916.63;;;-1.07;100.00
19748;BME280;10032;51.386;12.516;2023-03-12T03:55:12;99909.75;;;-1.16;100.00
19748;BME280;10032;51.386;12.516;2023-03-12T03:57:38;99912.19;;;-1.14;100.00
19748;BME280;10032;51.386;12.516;2023-03-12T04:00:04;99907.44;;;-1.19;100.00
19748;BME280;10032;51.386;12.516;2023-03-12T04:02:34;99920.25;;;-1.22;100.00
19748;BME280;10032;51.386;12.516;2023-03-12T04:05:00;99920.78;;;-1.27;100.00
19748;BME280;10032;51.386;12.516;2023-03-12T04:07:26;99917.03;;;-1.32;100.00
19748;BME280;10032;51.386;12.516;2023-03-12T04:09:52;99920.69;;;-1.33;100.00
19748;BME280;10032;51.386;12.516;2023-03-12T04:12:19;99908.78;;;-1.37;100.00
19748;BME280;10032;51.386;12.516;2023-03-12T04:14:44;99921.75;;;-1.42;100.00
19748;BME280;10032;51.386;12.516;2023-03-12T04:17:10;99914.81;;;-1.43;100.00
19748;BME280;10032;51.386;12.516;2023-03-12T04:19:35;99926.44;;;-1.44;100.00
19748;BME280;10032;51.386;12.516;2023-03-12T04:22:01;99925.78;;;-1.46;100.00
19748;BME280;10032;51.386;12.516;2023-03-12T04:24:26;99922.94;;;-1.45;100.00
19748;BME280;10032;51.386;12.516;2023-03-12T04:26:52;99930.16;;;-1.53;100.00
19748;BME280;10032;51.386;12.516;2023-03-12T04:29:18;99939.13;;;-1.54;100.00
19748;BME280;10032;51.386;12.516;2023-03-12T04:31:44;99932.88;;;-1.61;100.00
19748;BME280;10032;51.386;12.516;2023-03-12T04:34:10;99938.00;;;-1.60;100.00
19748;BME280;10032;51.386;12.516;2023-03-12T04:36:36;99937.53;;;-1.63;100.00
19748;BME280;10032;51.386;12.516;2023-03-12T04:39:02;99944.66;;;-1.64;100.00
19748;BME280;10032;51.386;12.516;2023-03-12T04:41:35;99935.59;;;-1.69;100.00
19748;BME280;10032;51.386;12.516;2023-03-12T04:44:01;99936.78;;;-1.72;100.00
19748;BME280;10032;51.386;12.516;2023-03-12T04:46:27;99935.47;;;-1.76;100.00
19748;BME280;10032;51.386;12.516;2023-03-12T04:48:53;99924.38;;;-1.79;100.00
19748;BME280;10032;51.386;12.516;2023-03-12T04:51:19;99919.41;;;-1.82;100.00
19748;BME280;10032;51.386;12.516;2023-03-12T04:53:44;99926.41;;;-1.81;100.00
19748;BME280;10032;51.386;12.516;2023-03-12T04:56:10;99925.09;;;-1.85;100.00
19748;BME280;10032;51.386;12.516;2023-03-12T04:58:35;99924.09;;;-1.84;100.00
19748;BME280;10032;51.386;12.516;2023-03-12T05:01:01;99930.41;;;-1.85;100.00
19748;BME280;10032;51.386;12.516;2023-03-12T05:03:27;99929.94;;;-1.89;100.00
19748;BME280;10032;51.386;12.516;2023-03-12T05:05:52;99930.94;;;-1.90;100.00
19748;BME280;10032;51.386;12.516;2023-03-12T05:08:17;99922.59;;;-1.87;100.00
19748;BME280;10032;51.386;12.516;2023-03-12T05:10:43;99935.03;;;-1.87;100.00
19748;BME280;10032;51.386;12.516;2023-03-12T05:15:39;99932.38;;;-1.87;100.00
19748;BME280;10032;51.386;12.516;2023-03-12T05:18:04;99933.59;;;-1.90;100.00
19748;BME280;10032;51.386;12.516;2023-03-12T05:20:30;99934.75;;;-1.92;100.00
19748;BME280;10032;51.386;12.516;2023-03-12T05:22:55;99928.16;;;-1.96;100.00
19748;BME280;10032;51.386;12.516;2023-03-12T05:25:20;99928.47;;;-1.99;100.00
19748;BME280;10032;51.386;12.516;2023-03-12T05:27:46;99928.84;;;-2.02;100.00
19748;BME280;10032;51.386;12.516;2023-03-12T05:30:11;99939.16;;;-2.07;100.00
19748;BME280;10032;51.386;12.516;2023-03-12T05:32:37;99936.50;;;-2.07;100.00
19748;BME280;10032;51.386;12.516;2023-03-12T05:35:03;99936.50;;;-2.07;100.00
19748;BME280;10032;51.386;12.516;2023-03-12T05:37:28;99935.84;;;-2.09;100.00
19748;BME280;10032;51.386;12.516;2023-03-12T05:39:53;99938.69;;;-2.11;100.00
19748;BME280;10032;51.386;12.516;2023-03-12T05:42:19;99935.19;;;-2.11;100.00
19748;BME280;10032;51.386;12.516;2023-03-12T05:44:44;99936.19;;;-2.12;100.00
19748;BME280;10032;51.386;12.516;2023-03-12T05:47:10;99938.97;;;-2.06;100.00
19748;BME280;10032;51.386;12.516;2023-03-12T05:49:35;99946.75;;;-2.04;100.00
19748;BME280;10032;51.386;12.516;2023-03-12T05:52:01;99941.75;;;-1.99;100.00
19748;BME280;10032;51.386;12.516;2023-03-12T05:54:26;99939.09;;;-1.99;100.00
19748;BME280;10032;51.386;12.516;2023-03-12T05:56:52;99936.44;;;-1.99;100.00
19748;BME280;10032;51.386;12.516;2023-03-12T05:59:17;99924.50;;;-1.95;100.00
19748;BME280;10032;51.386;12.516;2023-03-12T06:01:42;99939.22;;;-1.93;100.00
19748;BME280;10032;51.386;12.516;2023-03-12T06:04:08;99943.38;;;-1.90;100.00
19748;BME280;10032;51.386;12.516;2023-03-12T06:06:35;99935.03;;;-1.87;100.00
19748;BME280;10032;51.386;12.516;2023-03-12T06:09:01;99941.66;;;-1.83;100.00
19748;BME280;10032;51.386;12.516;2023-03-12T06:11:28;99934.34;;;-1.81;100.00
19748;BME280;10032;51.386;12.516;2023-03-12T06:13:55;99932.16;;;-1.78;100.00
19748;BME280;10032;51.386;12.516;2023-03-12T06:16:23;99929.81;;;-1.73;100.00
19748;BME280;10032;51.386;12.516;2023-03-12T06:18:55;99941.91;;;-1.70;100.00
19748;BME280;10032;51.386;12.516;2023-03-12T06:21:23;99936.06;;;-1.66;100.00
19748;BME280;10032;51.386;12.516;2023-03-12T06:23:48;99933.69;;;-1.61;100.00
19748;BME280;10032;51.386;12.516;2023-03-12T06:26:15;99932.34;;;-1.57;100.00
19748;BME280;10032;51.386;12.516;2023-03-12T06:28:40;99934.75;;;-1.47;100.00
19748;BME280;10032;51.386;12.516;2023-03-12T06:31:07;99929.19;;;-1.38;100.00
19748;BME280;10032;51.386;12.516;2023-03-12T06:33:33;99938.63;;;-1.35;100.00
19748;BME280;10032;51.386;12.516;2023-03-12T06:36:01;99934.75;;;-1.25;100.00
19748;BME280;10032;51.386;12.516;2023-03-12T06:38:27;99933.66;;;-1.16;100.00
19748;BME280;10032;51.386;12.516;2023-03-12T06:41:01;99938.53;;;-1.05;100.00
19748;BME280;10032;51.386;12.516;2023-03-12T06:43:28;99943.41;;;-0.94;100.00
19748;BME280;10032;51.386;12.516;2023-03-12T06:45:56;99935.34;;;-0.86;100.00
19748;BME280;10032;51.386;12.516;2023-03-12T06:48:22;99937.25;;;-0.80;100.00
19748;BME280;10032;51.386;12.516;2023-03-12T06:50:49;99933.97;;;-0.68;100.00
19748;BME280;10032;51.386;12.516;2023-03-12T06:53:14;99939.84;;;-0.57;100.00
19748;BME280;10032;51.386;12.516;2023-03-12T06:55:40;99939.56;;;-0.48;100.00
19748;BME280;10032;51.386;12.516;2023-03-12T06:58:06;99940.94;;;-0.38;100.00
19748;BME280;10032;51.386;12.516;2023-03-12T07:00:32;99943.13;;;-0.27;100.00
19748;BME280;10032;51.386;12.516;2023-03-12T07:02:58;99946.50;;;-0.18;100.00
19748;BME280;10032;51.386;12.516;2023-03-12T07:05:24;99943.53;;;-0.09;100.00
19748;BME280;10032;51.386;12.516;2023-03-12T07:07:49;99950.41;;;0.00;100.00
19748;BME280;10032;51.386;12.516;2023-03-12T07:10:15;99935.84;;;0.17;100.00
19748;BME280;10032;51.386;12.516;2023-03-12T07:12:42;99944.25;;;0.35;100.00
19748;BME280;10032;51.386;12.516;2023-03-12T07:15:08;99939.72;;;0.50;100.00
19748;BME280;10032;51.386;12.516;2023-03-12T07:17:33;99936.72;;;0.60;100.00
19748;BME280;10032;51.386;12.516;2023-03-12T07:19:59;99930.25;;;0.69;100.00
19748;BME280;10032;51.386;12.516;2023-03-12T07:22:24;99937.47;;;0.75;100.00
19748;BME280;10032;51.386;12.516;2023-03-12T07:24:49;99930.53;;;0.80;100.00
19748;BME280;10032;51.386;12.516;2023-03-12T07:27:18;99923.44;;;0.87;100.00
19748;BME280;10032;51.386;12.516;2023-03-12T07:29:43;99924.53;;;0.99;100.00
19748;BME280;10032;51.386;12.516;2023-03-12T07:32:10;99922.34;;;1.09;100.00
19748;BME280;10032;51.386;12.516;2023-03-12T07:34:35;99919.75;;;1.22;100.00
19748;BME280;10032;51.386;12.516;2023-03-12T07:37:01;99924.97;;;1.37;100.00
19748;BME280;10032;51.386;12.516;2023-03-12T07:39:26;99919.91;;;1.48;100.00
19748;BME280;10032;51.386;12.516;2023-03-12T07:41:51;99924.69;;;1.59;100.00
19748;BME280;10032;51.386;12.516;2023-03-12T07:44:17;99923.09;;;1.71;100.00
19748;BME280;10032;51.386;12.516;2023-03-12T07:46:42;99922.34;;;1.84;100.00
19748;BME280;10032;51.386;12.516;2023-03-12T07:49:08;99921.56;;;1.96;100.00
19748;BME280;10032;51.386;12.516;2023-03-12T07:51:33;99915.44;;;2.02;100.00
19748;BME280;10032;51.386;12.516;2023-03-12T07:53:59;99920.41;;;2.18;100.00
19748;BME280;10032;51.386;12.516;2023-03-12T07:56:24;99909.16;;;2.36;100.00
19748;BME280;10032;51.386;12.516;2023-03-12T07:58:50;99913.31;;;2.51;100.00
19748;BME280;10032;51.386;12.516;2023-03-12T08:01:15;99913.09;;;2.59;100.00
19748;BME280;10032;51.386;12.516;2023-03-12T08:03:41;99911.66;;;2.57;100.00
19748;BME280;10032;51.386;12.516;2023-03-12T08:06:07;99917.63;;;2.59;100.00
19748;BME280;10032;51.386;12.516;2023-03-12T08:08:32;99919.88;;;2.55;100.00
19748;BME280;10032;51.386;12.516;2023-03-12T08:10:59;99916.19;;;2.56;100.00
19748;BME280;10032;51.386;12.516;2023-03-12T08:13:25;99919.06;;;2.61;100.00
19748;BME280;10032;51.386;12.516;2023-03-12T08:15:51;99917.81;;;2.70;100.00
19748;BME280;10032;51.386;12.516;2023-03-12T08:18:18;99908.97;;;2.76;100.00
19748;BME280;10032;51.386;12.516;2023-03-12T08:20:44;99912.91;;;2.80;100.00
19748;BME280;10032;51.386;12.516;2023-03-12T08:23:09;99910.22;;;2.80;100.00
19748;BME280;10032;51.386;12.516;2023-03-12T08:25:35;99916.22;;;2.82;100.00
19748;BME280;10032;51.386;12.516;2023-03-12T08:28:02;99919.91;;;2.94;100.00
19748;BME280;10032;51.386;12.516;2023-03-12T08:30:28;99913.09;;;3.11;100.00
19748;BME280;10032;51.386;12.516;2023-03-12T08:32:53;99906.91;;;3.17;100.00
19748;BME280;10032;51.386;12.516;2023-03-12T08:35:19;99908.13;;;3.21;100.00
19748;BME280;10032;51.386;12.516;2023-03-12T08:37:44;99912.06;;;3.25;100.00
19748;BME280;10032;51.386;12.516;2023-03-12T08:40:10;99907.69;;;3.37;100.00
19748;BME280;10032;51.386;12.516;2023-03-12T08:42:40;99900.91;;;3.41;100.00
19748;BME280;10032;51.386;12.516;2023-03-12T08:45:07;99901.28;;;3.51;100.00
19748;BME280;10032;51.386;12.516;2023-03-12T08:47:33;99897.72;;;3.70;100.00
19748;BME280;10032;51.386;12.516;2023-03-12T08:49:59;99896.81;;;3.89;100.00
19748;BME280;10032;51.386;12.516;2023-03-12T08:52:25;99894.72;;;3.91;100.00
19748;BME280;10032;51.386;12.516;2023-03-12T08:54:50;99887.91;;;3.95;100.00
19748;BME280;10032;51.386;12.516;2023-03-12T08:57:16;99890.97;;;4.05;100.00
19748;BME280;10032;51.386;12.516;2023-03-12T08:59:41;99891.72;;;4.19;100.00
19748;BME280;10032;51.386;12.516;2023-03-12T09:02:10;99898.69;;;4.26;100.00
19748;BME280;10032;51.386;12.516;2023-03-12T09:04:36;99893.06;;;4.34;100.00
19748;BME280;10032;51.386;12.516;2023-03-12T09:07:01;99896.09;;;4.44;100.00
19748;BME280;10032;51.386;12.516;2023-03-12T09:09:27;99890.69;;;4.51;100.00
19748;BME280;10032;51.386;12.516;2023-03-12T09:11:52;99893.75;;;4.54;100.00
19748;BME280;10032;51.386;12.516;2023-03-12T09:14:18;99893.78;;;4.48;100.00
19748;BME280;10032;51.386;12.516;2023-03-12T09:16:44;99879.56;;;4.47;100.00
19748;BME280;10032;51.386;12.516;2023-03-12T09:19:09;99873.72;;;4.57;100.00
19748;BME280;10032;51.386;12.516;2023-03-12T09:21:35;99875.09;;;4.66;100.00
19748;BME280;10032;51.386;12.516;2023-03-12T09:24:00;99878.53;;;4.73;100.00
19748;BME280;10032;51.386;12.516;2023-03-12T09:26:26;99877.28;;;4.75;100.00
19748;BME280;10032;51.386;12.516;2023-03-12T09:28:52;99882.66;;;4.75;100.00
19748;BME280;10032;51.386;12.516;2023-03-12T09:31:17;99870.72;;;4.71;100.00
19748;BME280;10032;51.386;12.516;2023-03-12T09:33:43;99868.84;;;4.72;100.00
19748;BME280;10032;51.386;12.516;2023-03-12T09:36:08;99873.72;;;4.81;100.00
19748;BME280;10032;51.386;12.516;2023-03-12T09:38:34;99872.38;;;4.97;100.00
19748;BME280;10032;51.386;12.516;2023-03-12T09:41:03;99869.59;;;5.03;100.00
19748;BME280;10032;51.386;12.516;2023-03-12T09:43:37;99873.53;;;5.25;100.00
19748;BME280;10032;51.386;12.516;2023-03-12T09:46:11;99861.91;;;5.31;100.00
19748;BME280;10032;51.386;12.516;2023-03-12T09:48:39;99867.59;;;5.41;100.00
19748;BME280;10032;51.386;12.516;2023-03-12T09:53:44;99856.66;;;5.54;100.00
19748;BME280;10032;51.386;12.516;2023-03-12T09:56:16;99858.16;;;5.68;100.00
19748;BME280;10032;51.386;12.516;2023-03-12T09:58:42;99860.63;;;5.88;100.00
19748;BME280;10032;51.386;12.516;2023-03-12T10:01:36;99857.53;;;6.02;100.00
19748;BME280;10032;51.386;12.516;2023-03-12T10:07:14;99848.25;;;6.16;100.00
19748;BME280;10032;51.386;12.516;2023-03-12T10:26:18;99817.34;;;6.48;100.00
19748;BME280;10032;51.386;12.516;2023-03-12T10:29:16;99816.31;;;6.61;100.00
19748;BME280;10032;51.386;12.516;2023-03-12T10:31:58;99814.31;;;6.56;100.00
19748;BME280;10032;51.386;12.516;2023-03-12T10:34:33;99819.00;;;6.61;100.00
19748;BME280;10032;51.386;12.516;2023-03-12T10:37:13;99822.75;;;6.71;100.00
19748;BME280;10032;51.386;12.516;2023-03-12T10:39:40;99826.41;;;6.77;100.00
19748;BME280;10032;51.386;12.516;2023-03-12T10:42:19;99830.34;;;6.86;100.00
19748;BME280;10032;51.386;12.516;2023-03-12T10:44:50;99829.81;;;6.95;100.00
19748;BME280;10032;51.386;12.516;2023-03-12T10:47:35;99816.19;;;7.13;100.00
19748;BME280;10032;51.386;12.516;2023-03-12T10:52:38;99802.50;;;7.26;100.00
19748;BME280;10032;51.386;12.516;2023-03-12T10:55:27;99809.41;;;7.22;100.00
19748;BME280;10032;51.386;12.516;2023-03-12T10:57:54;99805.53;;;7.30;100.00
19748;BME280;10032;51.386;12.516;2023-03-12T11:00:26;99796.84;;;7.39;100.00
19748;BME280;10032;51.386;12.516;2023-03-12T11:03:04;99802.34;;;7.44;100.00
19748;BME280;10032;51.386;12.516;2023-03-12T11:05:45;99793.53;;;7.49;100.00
19748;BME280;10032;51.386;12.516;2023-03-12T11:08:33;99788.78;;;7.67;100.00
19748;BME280;10032;51.386;12.516;2023-03-12T11:11:00;99784.31;;;7.73;100.00
19748;BME280;10032;51.386;12.516;2023-03-12T11:13:32;99783.50;;;7.72;100.00
19748;BME280;10032;51.386;12.516;2023-03-12T11:16:20;99774.31;;;7.85;100.00
19748;BME280;10032;51.386;12.516;2023-03-12T11:18:58;99763.94;;;7.93;100.00
19748;BME280;10032;51.386;12.516;2023-03-12T11:21:27;99768.13;;;8.01;100.00
19748;BME280;10032;51.386;12.516;2023-03-12T11:26:30;99756.31;;;8.18;100.00
19748;BME280;10032;51.386;12.516;2023-03-12T11:29:10;99745.63;;;8.23;100.00
19748;BME280;10032;51.386;12.516;2023-03-12T11:31:54;99752.59;;;8.52;100.00
19748;BME280;10032;51.386;12.516;2023-03-12T11:34:26;99750.13;;;8.67;100.00
19748;BME280;10032;51.386;12.516;2023-03-12T11:45:46;99727.19;;;8.70;100.00
19748;BME280;10032;51.386;12.516;2023-03-12T11:48:26;99722.97;;;8.57;100.00
19748;BME280;10032;51.386;12.516;2023-03-12T11:51:21;99702.88;;;8.48;100.00
19748;BME280;10032;51.386;12.516;2023-03-12T11:56:44;99706.47;;;8.37;100.00
19748;BME280;10032;51.386;12.516;2023-03-12T11:59:36;99702.13;;;8.36;100.00
19748;BME280;10032;51.386;12.516;2023-03-12T12:02:28;99698.09;;;8.39;100.00
19748;BME280;10032;51.386;12.516;2023-03-12T12:05:25;99680.13;;;8.44;100.00
19748;BME280;10032;51.386;12.516;2023-03-12T12:13:49;99670.78;;;8.52;99.10
19748;BME280;10032;51.386;12.516;2023-03-12T12:19:15;99664.41;;;8.41;96.87
19748;BME280;10032;51.386;12.516;2023-03-12T12:28:13;99644.63;;;8.52;96.73
19748;BME280;10032;51.386;12.516;2023-03-12T12:31:00;99648.03;;;8.64;94.85
19748;BME280;10032;51.386;12.516;2023-03-12T12:33:48;99649.16;;;8.68;95.88
19748;BME280;10032;51.386;12.516;2023-03-12T12:36:18;99648.03;;;8.64;94.66
19748;BME280;10032;51.386;12.516;2023-03-12T12:38:51;99639.69;;;8.66;94.30
19748;BME280;10032;51.386;12.516;2023-03-12T12:41:29;99641.09;;;8.73;94.68
19748;BME280;10032;51.386;12.516;2023-03-12T12:44:10;99640.78;;;8.70;94.34
19748;BME280;10032;51.386;12.516;2023-03-12T12:46:40;99633.31;;;8.55;92.12
19748;BME280;10032;51.386;12.516;2023-03-12T12:49:13;99627.41;;;8.58;93.34
19748;BME280;10032;51.386;12.516;2023-03-12T12:51:47;99629.38;;;8.63;93.43
19748;BME280;10032;51.386;12.516;2023-03-12T12:54:36;99629.69;;;8.66;93.27
19748;BME280;10032;51.386;12.516;2023-03-12T12:57:22;99625.34;;;8.65;91.69
19748;BME280;10032;51.386;12.516;2023-03-12T13:02:54;99624.06;;;8.51;89.42
19748;BME280;10032;51.386;12.516;2023-03-12T13:05:54;99614.97;;;8.57;89.32
19748;BME280;10032;51.386;12.516;2023-03-12T13:08:59;99612.97;;;8.69;89.45
19748;BME280;10032;51.386;12.516;2023-03-12T13:11:44;99608.13;;;8.71;90.21
19748;BME280;10032;51.386;12.516;2023-03-12T13:14:21;99605.44;;;8.71;90.38
19748;BME280;10032;51.386;12.516;2023-03-12T13:16:47;99607.06;;;8.72;90.96
19748;BME280;10032;51.386;12.516;2023-03-12T13:24:32;99608.66;;;8.90;90.71
19748;BME280;10032;51.386;12.516;2023-03-12T13:27:41;99599.69;;;8.84;89.75
19748;BME280;10032;51.386;12.516;2023-03-12T13:29:48;99593.88;;;8.76;87.65
19748;BME280;10032;51.386;12.516;2023-03-12T13:34:59;99587.97;;;8.57;87.09
19748;BME280;10032;51.386;12.516;2023-03-12T13:37:58;99590.09;;;8.55;85.67
19748;BME280;10032;51.386;12.516;2023-03-12T13:43:13;99599.22;;;8.49;87.79
19748;BME280;10032;51.386;12.516;2023-03-12T13:45:53;99585.88;;;8.43;88.67
19748;BME280;10032;51.386;12.516;2023-03-12T13:48:20;99597.84;;;8.30;90.40
19748;BME280;10032;51.386;12.516;2023-03-12T13:50:52;99590.09;;;8.17;91.70
19748;BME280;10032;51.386;12.516;2023-03-12T13:53:27;99592.19;;;8.15;93.98
19748;BME280;10032;51.386;12.516;2023-03-12T13:56:02;99593.94;;;8.05;95.67
19748;BME280;10032;51.386;12.516;2023-03-12T13:58:29;99581.00;;;8.07;96.41
19748;BME280;10032;51.386;12.516;2023-03-12T14:01:04;99587.59;;;7.94;98.24
19748;BME280;10032;51.386;12.516;2023-03-12T14:03:34;99585.94;;;7.93;99.77
19748;BME280;10032;51.386;12.516;2023-03-12T14:17:26;99572.53;;;7.98;100.00
19748;BME280;10032;51.386;12.516;2023-03-12T14:20:00;99563.06;;;7.96;100.00
19748;BME280;10032;51.386;12.516;2023-03-12T14:22:31;99563.31;;;7.94;100.00
19748;BME280;10032;51.386;12.516;2023-03-12T14:25:02;99561.41;;;7.95;100.00